createdAt,value
2022-08-02T00:00:04.788Z,1017.35
2022-08-02T00:02:02.012Z,1017.48
2022-08-02T00:04:01.811Z,1017.48
2022-08-02T00:06:02.207Z,1017.36
2022-08-02T00:08:02.539Z,1017.36
2022-08-02T00:10:02.292Z,1017.28
2022-08-02T00:12:01.762Z,1017.28
2022-08-02T00:14:02.473Z,1017.16
2022-08-02T00:16:01.711Z,1017.16
2022-08-02T00:18:02.316Z,1017.16
2022-08-02T00:20:02.542Z,1017.13
2022-08-02T00:22:01.801Z,1017.13
2022-08-02T00:24:30.996Z,1017.02
2022-08-02T00:26:02.497Z,1017.02
2022-08-02T00:28:02.536Z,1017.04
2022-08-02T00:30:01.744Z,1017.04
2022-08-02T00:32:02.301Z,1017.06
2022-08-02T00:34:35.039Z,1017.06
2022-08-02T00:36:01.786Z,1017
2022-08-02T00:38:02.296Z,1017
2022-08-02T00:40:02.251Z,1017.08
2022-08-02T00:42:02.478Z,1017.08
2022-08-02T00:44:02.050Z,1017.01
2022-08-02T00:46:04.193Z,1017.01
2022-08-02T00:48:01.888Z,1017.04
2022-08-02T00:50:02.208Z,1017.04
2022-08-02T00:52:02.501Z,1016.99
2022-08-02T00:54:02.079Z,1016.99
2022-08-02T00:56:02.233Z,1016.89
2022-08-02T00:58:01.772Z,1016.89
2022-08-02T01:00:05.751Z,1016.91
2022-08-02T01:02:02.106Z,1016.91
2022-08-02T01:04:02.176Z,1016.9
2022-08-02T01:06:12.372Z,1016.9
2022-08-02T01:08:01.851Z,1016.89
2022-08-02T01:10:02.230Z,1016.89
2022-08-02T01:12:03.055Z,1016.82
2022-08-02T01:14:01.898Z,1016.82
2022-08-02T01:16:01.601Z,1016.84
2022-08-02T01:18:02.174Z,1016.84
2022-08-02T01:20:02.032Z,1016.79
2022-08-02T01:22:01.789Z,1016.79
2022-08-02T01:24:01.972Z,1016.84
2022-08-02T01:26:01.691Z,1016.84
2022-08-02T01:28:02.056Z,1016.8
2022-08-02T01:30:02.596Z,1016.8
2022-08-02T01:32:02.594Z,1016.85
2022-08-02T01:34:01.698Z,1016.85
2022-08-02T01:36:01.929Z,1016.83
2022-08-02T01:38:02.053Z,1016.83
2022-08-02T01:40:02.228Z,1016.81
2022-08-02T01:42:02.461Z,1016.81
2022-08-02T01:44:01.825Z,1016.82
2022-08-02T01:46:02.329Z,1016.82
2022-08-02T01:48:02.099Z,1016.69
2022-08-02T01:50:02.631Z,1016.69
2022-08-02T01:52:01.750Z,1016.78
2022-08-02T01:54:03.391Z,1016.78
2022-08-02T01:56:02.479Z,1016.74
2022-08-02T01:58:01.984Z,1016.74
2022-08-02T02:00:06.252Z,1016.76
2022-08-02T02:02:02.377Z,1016.76
2022-08-02T02:04:01.688Z,1016.69
2022-08-02T02:06:01.782Z,1016.69
2022-08-02T02:08:02.043Z,1016.62
2022-08-02T02:10:02.309Z,1016.62
2022-08-02T02:12:15.002Z,1016.54
2022-08-02T02:14:02.069Z,1016.54
2022-08-02T02:16:02.360Z,1016.6
2022-08-02T02:18:13.977Z,1016.6
2022-08-02T02:20:02.451Z,1016.64
2022-08-02T02:22:02.550Z,1016.64
2022-08-02T02:24:02.027Z,1016.68
2022-08-02T02:26:04.137Z,1016.68
2022-08-02T02:28:02.396Z,1016.61
2022-08-02T02:30:02.299Z,1016.61
2022-08-02T02:32:01.900Z,1016.59
2022-08-02T02:34:01.574Z,1016.59
2022-08-02T02:36:02.070Z,1016.56
2022-08-02T02:38:01.701Z,1016.56
2022-08-02T02:40:02.657Z,1016.54
2022-08-02T02:42:02.560Z,1016.54
2022-08-02T02:44:01.987Z,1016.7
2022-08-02T02:46:01.747Z,1016.7
2022-08-02T02:48:02.199Z,1016.54
2022-08-02T02:50:02.441Z,1016.54
2022-08-02T02:52:02.408Z,1016.47
2022-08-02T02:54:35.571Z,1016.47
2022-08-02T02:56:03.185Z,1016.44
2022-08-02T02:58:02.465Z,1016.44
2022-08-02T03:00:02.569Z,1016.44
2022-08-02T03:02:03.549Z,1016.44
2022-08-02T03:04:02.124Z,1016.43
2022-08-02T03:06:15.989Z,1016.43
2022-08-02T03:08:02.276Z,1016.42
2022-08-02T03:10:01.952Z,1016.42
2022-08-02T03:12:01.715Z,1016.31
2022-08-02T03:14:01.607Z,1016.31
2022-08-02T03:16:01.564Z,1016.13
2022-08-02T03:18:02.172Z,1016.13
2022-08-02T03:20:01.795Z,1016.12
2022-08-02T03:22:02.581Z,1016.12
2022-08-02T03:24:01.683Z,1016.06
2022-08-02T03:26:02.498Z,1016.06
2022-08-02T03:28:01.815Z,1015.95
2022-08-02T03:30:02.088Z,1015.95
2022-08-02T03:32:02.294Z,1016.04
2022-08-02T03:34:01.911Z,1016.04
2022-08-02T03:36:02.247Z,1016.19
2022-08-02T03:38:01.958Z,1016.19
2022-08-02T03:40:02.134Z,1016.08
2022-08-02T03:42:01.600Z,1016.02
2022-08-02T03:44:02.228Z,1016.02
2022-08-02T03:46:01.709Z,1015.82
2022-08-02T03:48:31.806Z,1015.82
2022-08-02T03:50:01.860Z,1015.94
2022-08-02T03:52:02.203Z,1015.94
2022-08-02T03:54:01.770Z,1015.82
2022-08-02T03:56:01.939Z,1015.82
2022-08-02T03:58:01.960Z,1015.93
2022-08-02T04:00:04.534Z,1015.93
2022-08-02T04:02:03.796Z,1015.94
2022-08-02T04:04:01.707Z,1015.94
2022-08-02T04:06:05.193Z,1016
2022-08-02T04:08:38.732Z,1016
2022-08-02T04:10:02.201Z,1015.96
2022-08-02T04:12:01.780Z,1015.96
2022-08-02T04:14:02.546Z,1015.98
2022-08-02T04:16:02.564Z,1015.98
2022-08-02T04:18:02.148Z,1015.9
2022-08-02T04:20:02.444Z,1015.9
2022-08-02T04:22:02.240Z,1015.95
2022-08-02T04:24:04.558Z,1015.95
2022-08-02T04:26:04.670Z,1015.76
2022-08-02T04:28:18.742Z,1015.76
2022-08-02T04:30:02.551Z,1015.79
2022-08-02T04:32:01.879Z,1015.79
2022-08-02T04:34:02.125Z,1015.78
2022-08-02T04:36:02.394Z,1015.78
2022-08-02T04:38:10.714Z,1015.64
2022-08-02T04:40:03.468Z,1015.64
2022-08-02T04:42:01.613Z,1015.65
2022-08-02T04:44:02.307Z,1015.65
2022-08-02T04:46:02.314Z,1015.66
2022-08-02T04:48:06.664Z,1015.66
2022-08-02T04:50:01.690Z,1015.64
2022-08-02T04:52:02.191Z,1015.64
2022-08-02T04:54:10.415Z,1015.61
2022-08-02T04:56:02.151Z,1015.61
2022-08-02T04:58:30.124Z,1015.72
2022-08-02T05:00:05.251Z,1015.72
2022-08-02T05:02:02.352Z,1015.67
2022-08-02T05:04:01.808Z,1015.67
2022-08-02T05:06:02.317Z,1015.68
2022-08-02T05:08:01.669Z,1015.68
2022-08-02T05:10:02.608Z,1015.72
2022-08-02T05:12:03.143Z,1015.72
2022-08-02T05:14:02.080Z,1015.78
2022-08-02T05:16:01.884Z,1015.78
2022-08-02T05:18:02.071Z,1015.8
2022-08-02T05:20:02.503Z,1015.8
2022-08-02T05:22:02.169Z,1015.81
2022-08-02T05:24:02.184Z,1015.81
2022-08-02T05:26:01.897Z,1015.62
2022-08-02T05:28:02.000Z,1015.62
2022-08-02T05:30:01.764Z,1015.82
2022-08-02T05:32:02.363Z,1015.82
2022-08-02T05:34:02.017Z,1015.84
2022-08-02T05:36:01.999Z,1015.84
2022-08-02T05:38:01.575Z,1015.79
2022-08-02T05:40:02.440Z,1015.79
2022-08-02T05:42:01.963Z,1015.7
2022-08-02T05:44:02.349Z,1015.7
2022-08-02T05:46:01.928Z,1015.74
2022-08-02T05:48:04.126Z,1015.74
2022-08-02T05:50:02.061Z,1015.83
2022-08-02T05:52:02.066Z,1015.83
2022-08-02T05:54:02.087Z,1015.73
2022-08-02T05:56:08.835Z,1015.73
2022-08-02T05:58:01.719Z,1015.71
2022-08-02T06:00:05.813Z,1015.71
2022-08-02T06:02:02.073Z,1015.65
2022-08-02T06:04:02.137Z,1015.65
2022-08-02T06:06:02.314Z,1015.62
2022-08-02T06:08:02.470Z,1015.62
2022-08-02T06:10:02.601Z,1015.79
2022-08-02T06:12:03.269Z,1015.79
2022-08-02T06:14:02.196Z,1015.87
2022-08-02T06:16:01.776Z,1015.87
2022-08-02T06:18:01.934Z,1015.77
2022-08-02T06:20:01.749Z,1015.77
2022-08-02T06:22:42.859Z,1015.71
2022-08-02T06:24:02.059Z,1015.71
2022-08-02T06:26:02.482Z,1015.63
2022-08-02T06:28:02.540Z,1015.63
2022-08-02T06:30:02.098Z,1015.65
2022-08-02T06:32:02.209Z,1015.65
2022-08-02T06:34:01.651Z,1015.65
2022-08-02T06:36:03.301Z,1015.65
2022-08-02T06:38:01.988Z,1015.71
2022-08-02T06:40:02.350Z,1015.71
2022-08-02T06:42:01.831Z,1015.68
2022-08-02T06:44:47.921Z,1015.68
2022-08-02T06:47:13.067Z,1015.71
2022-08-02T06:48:01.912Z,1015.71
2022-08-02T06:50:01.933Z,1015.7
2022-08-02T06:52:02.012Z,1015.7
2022-08-02T06:54:02.069Z,1015.66
2022-08-02T06:56:02.021Z,1015.66
2022-08-02T06:58:01.929Z,1015.63
2022-08-02T07:00:05.011Z,1015.64
2022-08-02T07:02:02.278Z,1015.64
2022-08-02T07:04:02.139Z,1015.62
2022-08-02T07:06:02.460Z,1015.62
2022-08-02T07:08:01.760Z,1015.46
2022-08-02T07:10:02.290Z,1015.46
2022-08-02T07:12:01.702Z,1015.37
2022-08-02T07:14:02.236Z,1015.37
2022-08-02T07:16:01.765Z,1015.46
2022-08-02T07:18:02.488Z,1015.46
2022-08-02T07:20:02.261Z,1015.5
2022-08-02T07:22:02.304Z,1015.5
2022-08-02T07:24:02.083Z,1015.38
2022-08-02T07:26:06.113Z,1015.38
2022-08-02T07:28:01.843Z,1015.34
2022-08-02T07:30:02.449Z,1015.34
2022-08-02T07:32:02.339Z,1015.2
2022-08-02T07:34:01.931Z,1015.2
2022-08-02T07:36:05.660Z,1015.36
2022-08-02T07:38:02.890Z,1015.36
2022-08-02T07:40:12.437Z,1015.29
2022-08-02T07:42:02.188Z,1015.29
2022-08-02T07:44:02.315Z,1015.26
2022-08-02T07:46:02.355Z,1015.26
2022-08-02T07:48:02.113Z,1015.16
2022-08-02T07:50:02.154Z,1015.16
2022-08-02T07:52:02.529Z,1015.29
2022-08-02T07:54:04.983Z,1015.29
2022-08-02T07:56:01.627Z,1015.22
2022-08-02T07:58:02.032Z,1015.22
2022-08-02T08:00:05.207Z,1015.08
2022-08-02T08:02:02.326Z,1015.08
2022-08-02T08:04:02.891Z,1015.15
2022-08-02T08:06:01.803Z,1015.15
2022-08-02T08:08:02.118Z,1015.25
2022-08-02T08:10:02.133Z,1015.25
2022-08-02T08:12:02.398Z,1015.1
2022-08-02T08:14:02.363Z,1015.1
2022-08-02T08:16:02.509Z,1015.17
2022-08-02T08:18:02.281Z,1015.17
2022-08-02T08:20:02.383Z,1015.13
2022-08-02T08:22:01.925Z,1015.13
2022-08-02T08:24:02.179Z,1015.2
2022-08-02T08:26:01.646Z,1015.2
2022-08-02T08:28:01.749Z,1015.22
2022-08-02T08:30:02.092Z,1015.22
2022-08-02T08:32:01.643Z,1015.21
2022-08-02T08:34:01.972Z,1015.21
2022-08-02T08:36:02.977Z,1015.25
2022-08-02T08:38:08.069Z,1015.25
2022-08-02T08:40:02.184Z,1015.22
2022-08-02T08:42:02.396Z,1015.22
2022-08-02T08:44:01.936Z,1015.27
2022-08-02T08:46:02.446Z,1015.27
2022-08-02T08:48:01.960Z,1015.21
2022-08-02T08:50:02.628Z,1015.21
2022-08-02T08:52:01.876Z,1015.15
2022-08-02T08:54:02.479Z,1015.15
2022-08-02T08:56:03.064Z,1015.19
2022-08-02T08:58:02.565Z,1015.19
2022-08-02T09:00:06.249Z,1015.21
2022-08-02T09:02:27.726Z,1015.21
2022-08-02T09:04:01.924Z,1015.31
2022-08-02T09:06:05.161Z,1015.31
2022-08-02T09:08:01.930Z,1015.31
2022-08-02T09:10:02.415Z,1015.31
2022-08-02T09:12:02.150Z,1015.36
2022-08-02T09:14:02.278Z,1015.36
2022-08-02T09:16:14.931Z,1015.32
2022-08-02T09:18:02.211Z,1015.32
2022-08-02T09:20:01.945Z,1015.28
2022-08-02T09:22:02.439Z,1015.28
2022-08-02T09:24:02.229Z,1015.33
2022-08-02T09:26:07.932Z,1015.33
2022-08-02T09:28:01.589Z,1015.39
2022-08-02T09:30:14.266Z,1015.39
2022-08-02T09:32:02.550Z,1015.34
2022-08-02T09:34:02.314Z,1015.34
2022-08-02T09:36:08.527Z,1015.26
2022-08-02T09:38:02.493Z,1015.26
2022-08-02T09:40:02.313Z,1015.36
2022-08-02T09:42:01.758Z,1015.36
2022-08-02T09:44:06.907Z,1015.33
2022-08-02T09:46:01.856Z,1015.33
2022-08-02T09:48:02.520Z,1015.59
2022-08-02T09:50:02.995Z,1015.59
2022-08-02T09:52:02.522Z,1015.61
2022-08-02T09:54:09.632Z,1015.61
2022-08-02T09:56:02.010Z,1015.55
2022-08-02T09:58:01.666Z,1015.55
2022-08-02T10:00:26.962Z,1015.51
2022-08-02T10:02:04.797Z,1015.51
2022-08-02T10:04:02.304Z,1015.43
2022-08-02T10:06:03.715Z,1015.43
2022-08-02T10:08:02.131Z,1015.49
2022-08-02T10:10:02.631Z,1015.49
2022-08-02T10:12:08.842Z,1015.54
2022-08-02T10:14:01.859Z,1015.54
2022-08-02T10:16:02.287Z,1015.55
2022-08-02T10:18:38.164Z,1015.55
2022-08-02T10:20:05.470Z,1015.49
2022-08-02T10:22:01.570Z,1015.49
2022-08-02T10:24:01.864Z,1015.64
2022-08-02T10:26:02.259Z,1015.64
2022-08-02T10:28:06.121Z,1015.41
2022-08-02T10:30:02.391Z,1015.35
2022-08-02T10:32:01.854Z,1015.35
2022-08-02T10:34:01.843Z,1015.26
2022-08-02T10:36:08.033Z,1015.26
2022-08-02T10:38:02.284Z,1015.36
2022-08-02T10:40:02.394Z,1015.36
2022-08-02T10:42:02.091Z,1015.28
2022-08-02T10:44:01.535Z,1015.28
2022-08-02T10:46:01.791Z,1015.33
2022-08-02T10:48:02.431Z,1015.33
2022-08-02T10:50:02.268Z,1015.34
2022-08-02T10:52:01.609Z,1015.34
2022-08-02T10:54:01.891Z,1015.32
2022-08-02T10:56:02.470Z,1015.32
2022-08-02T10:58:01.649Z,1015.37
2022-08-02T11:00:05.562Z,1015.37
2022-08-02T11:02:01.708Z,1015.23
2022-08-02T11:04:05.003Z,1015.23
2022-08-02T11:06:02.237Z,1015.2
2022-08-02T11:08:02.416Z,1015.2
2022-08-02T11:10:02.311Z,1015.14
2022-08-02T11:12:02.433Z,1015.14
2022-08-02T11:14:03.406Z,1015.23
2022-08-02T11:16:04.418Z,1015.23
2022-08-02T11:18:02.444Z,1015.4
2022-08-02T11:20:01.905Z,1015.4
2022-08-02T11:22:02.226Z,1015.38
2022-08-02T11:24:02.198Z,1015.38
2022-08-02T11:26:11.573Z,1015.22
2022-08-02T11:28:02.232Z,1015.22
2022-08-02T11:30:02.010Z,1015.18
2022-08-02T11:32:02.142Z,1015.18
2022-08-02T11:34:09.190Z,1015.29
2022-08-02T11:36:01.826Z,1015.29
2022-08-02T11:38:02.871Z,1015.2
2022-08-02T11:40:02.500Z,1015.2
2022-08-02T11:42:01.816Z,1015.33
2022-08-02T11:44:02.159Z,1015.33
2022-08-02T11:46:02.235Z,1015.24
2022-08-02T11:48:01.533Z,1015.24
2022-08-02T11:50:02.237Z,1015.41
2022-08-02T11:52:01.688Z,1015.41
2022-08-02T11:54:01.825Z,1015.2
2022-08-02T11:56:01.622Z,1015.2
2022-08-02T11:58:06.215Z,1015.21
2022-08-02T12:00:05.489Z,1015.21
2022-08-02T12:02:02.560Z,1015.13
2022-08-02T12:04:01.643Z,1015.13
2022-08-02T12:06:07.197Z,1015.23
2022-08-02T12:08:02.044Z,1015.23
2022-08-02T12:10:02.369Z,1015.22
2022-08-02T12:12:02.061Z,1015.22
2022-08-02T12:14:02.478Z,1015.16
2022-08-02T12:16:08.842Z,1015.16
2022-08-02T12:18:01.884Z,1015.04
2022-08-02T12:20:02.383Z,1015.04
2022-08-02T12:22:02.348Z,1015.22
2022-08-02T12:24:01.831Z,1015.22
2022-08-02T12:26:02.379Z,1015.21
2022-08-02T12:28:01.770Z,1015.21
2022-08-02T12:30:02.468Z,1015.19
2022-08-02T12:32:02.479Z,1015.19
2022-08-02T12:34:02.069Z,1015.22
2022-08-02T12:36:02.419Z,1015.22
2022-08-02T12:38:03.279Z,1015.22
2022-08-02T12:40:02.281Z,1015.22
2022-08-02T12:42:01.918Z,1015.2
2022-08-02T12:44:02.293Z,1015.2
2022-08-02T12:46:01.652Z,1015.18
2022-08-02T12:48:01.847Z,1015.18
2022-08-02T12:50:02.355Z,1015.12
2022-08-02T12:52:07.066Z,1015.12
2022-08-02T12:54:02.292Z,1015.13
2022-08-02T12:56:04.325Z,1015.13
2022-08-02T12:58:02.351Z,1015.11
2022-08-02T13:00:06.410Z,1015.11
2022-08-02T13:02:02.949Z,1015.06
2022-08-02T13:04:15.849Z,1015.06
2022-08-02T13:06:42.109Z,1015.04
2022-08-02T13:08:01.691Z,1015.04
2022-08-02T13:10:04.013Z,1015.1
2022-08-02T13:12:02.573Z,1015.1
2022-08-02T13:14:02.207Z,1015.06
2022-08-02T13:16:01.913Z,1015.06
2022-08-02T13:18:02.105Z,1015.12
2022-08-02T13:20:04.940Z,1015.12
2022-08-02T13:22:04.446Z,1015.17
2022-08-02T13:24:04.311Z,1015.17
2022-08-02T13:26:02.023Z,1015.08
2022-08-02T13:28:02.455Z,1015.08
2022-08-02T13:30:02.238Z,1015.09
2022-08-02T13:32:02.184Z,1015.09
2022-08-02T13:34:01.929Z,1015.07
2022-08-02T13:36:02.312Z,1015.07
2022-08-02T13:38:01.602Z,1014.96
2022-08-02T13:40:21.586Z,1014.96
2022-08-02T13:42:02.174Z,1014.97
2022-08-02T13:44:11.041Z,1014.97
2022-08-02T13:46:02.419Z,1015.01
2022-08-02T13:48:18.499Z,1015.01
2022-08-02T13:50:03.331Z,1014.99
2022-08-02T13:52:02.469Z,1014.99
2022-08-02T13:54:02.151Z,1014.95
2022-08-02T13:56:02.411Z,1014.95
2022-08-02T13:58:02.352Z,1014.93
2022-08-02T14:00:07.168Z,1014.93
2022-08-02T14:02:02.412Z,1014.93
2022-08-02T14:04:09.596Z,1014.9
2022-08-02T14:06:02.038Z,1014.9
2022-08-02T14:08:01.938Z,1014.86
2022-08-02T14:10:01.812Z,1014.86
2022-08-02T14:12:01.717Z,1014.81
2022-08-02T14:14:01.686Z,1014.81
2022-08-02T14:16:01.856Z,1014.81
2022-08-02T14:18:01.911Z,1014.81
2022-08-02T14:20:02.557Z,1014.84
2022-08-02T14:22:21.763Z,1014.84
2022-08-02T14:24:01.831Z,1014.81
2022-08-02T14:26:02.297Z,1014.81
2022-08-02T14:28:02.371Z,1014.58
2022-08-02T14:30:01.627Z,1014.58
2022-08-02T14:32:01.900Z,1014.52
2022-08-02T14:34:02.497Z,1014.52
2022-08-02T14:36:03.669Z,1014.52
2022-08-02T14:38:02.414Z,1014.52
2022-08-02T14:40:01.771Z,1014.47
2022-08-02T14:42:02.409Z,1014.47
2022-08-02T14:44:02.028Z,1014.46
2022-08-02T14:46:01.633Z,1014.46
2022-08-02T14:48:04.156Z,1014.45
2022-08-02T14:50:02.898Z,1014.45
2022-08-02T14:52:01.985Z,1014.45
2022-08-02T14:54:03.701Z,1014.45
2022-08-02T14:56:02.356Z,1014.63
2022-08-02T14:58:02.479Z,1014.63
2022-08-02T15:00:04.989Z,1014.38
2022-08-02T15:02:02.001Z,1014.38
2022-08-02T15:04:02.609Z,1014.4
2022-08-02T15:06:02.477Z,1014.4
2022-08-02T15:08:02.501Z,1014.33
2022-08-02T15:10:01.788Z,1014.33
2022-08-02T15:12:05.931Z,1014.46
2022-08-02T15:14:02.009Z,1014.46
2022-08-02T15:16:02.264Z,1014.46
2022-08-02T15:18:02.060Z,1014.46
2022-08-02T15:20:26.358Z,1014.41
2022-08-02T15:22:03.565Z,1014.41
2022-08-02T15:24:01.777Z,1014.3
2022-08-02T15:26:02.212Z,1014.3
2022-08-02T15:28:01.822Z,1014.36
2022-08-02T15:30:01.804Z,1014.36
2022-08-02T15:32:02.122Z,1014.33
2022-08-02T15:34:02.808Z,1014.33
2022-08-02T15:36:01.956Z,1014.38
2022-08-02T15:38:01.692Z,1014.38
2022-08-02T15:40:02.510Z,1014.3
2022-08-02T15:42:01.744Z,1014.3
2022-08-02T15:44:02.542Z,1014.31
2022-08-02T15:46:02.223Z,1014.31
2022-08-02T15:48:03.616Z,1014.34
2022-08-02T15:50:02.195Z,1014.34
2022-08-02T15:52:01.580Z,1014.25
2022-08-02T15:54:01.885Z,1014.25
2022-08-02T15:56:12.766Z,1014.33
2022-08-02T15:58:01.962Z,1014.33
2022-08-02T16:00:04.573Z,1014.35
2022-08-02T16:02:01.863Z,1014.35
2022-08-02T16:04:01.607Z,1014.27
2022-08-02T16:06:01.769Z,1014.27
2022-08-02T16:08:02.075Z,1014.31
2022-08-02T16:10:02.735Z,1014.31
2022-08-02T16:12:02.464Z,1014.37
2022-08-02T16:14:01.862Z,1014.37
2022-08-02T16:16:02.058Z,1014.28
2022-08-02T16:18:02.248Z,1014.28
2022-08-02T16:20:02.614Z,1014.41
2022-08-02T16:22:02.135Z,1014.41
2022-08-02T16:24:03.647Z,1014.35
2022-08-02T16:26:02.013Z,1014.35
2022-08-02T16:28:08.355Z,1014.39
2022-08-02T16:30:02.308Z,1014.39
2022-08-02T16:32:01.753Z,1014.37
2022-08-02T16:34:02.423Z,1014.37
2022-08-02T16:36:02.311Z,1014.22
2022-08-02T16:38:01.998Z,1014.22
2022-08-02T16:40:02.232Z,1014.4
2022-08-02T16:42:02.158Z,1014.4
2022-08-02T16:44:01.597Z,1014.29
2022-08-02T16:46:02.455Z,1014.29
2022-08-02T16:48:05.878Z,1014.48
2022-08-02T16:50:11.078Z,1014.48
2022-08-02T16:52:02.712Z,1014.18
2022-08-02T16:54:02.139Z,1014.18
2022-08-02T16:56:01.832Z,1014.19
2022-08-02T16:58:02.559Z,1014.19
2022-08-02T17:00:05.386Z,1014.19
2022-08-02T17:04:01.819Z,1014.09
2022-08-02T17:06:04.394Z,1014.09
2022-08-02T17:08:18.078Z,1014.04
2022-08-02T17:10:09.848Z,1014.04
2022-08-02T17:12:02.221Z,1014.05
2022-08-02T17:14:04.033Z,1014.05
2022-08-02T17:16:26.640Z,1014.06
2022-08-02T17:18:02.534Z,1014.06
2022-08-02T17:20:02.525Z,1014.03
2022-08-02T17:22:01.786Z,1014.03
2022-08-02T17:26:01.677Z,1014.08
2022-08-02T17:28:02.185Z,1014.05
2022-08-02T17:30:02.093Z,1014.11
2022-08-02T17:34:01.902Z,1014.08
2022-08-02T17:36:02.911Z,1014.08
2022-08-02T17:38:05.544Z,1014.2
2022-08-02T17:40:04.640Z,1014.2
2022-08-02T17:42:04.639Z,1014.3
2022-08-02T17:44:02.549Z,1014.3
2022-08-02T17:46:03.539Z,1014.14
2022-08-02T17:48:05.821Z,1014.14
2022-08-02T17:50:03.725Z,1014.19
2022-08-02T17:52:53.379Z,1014.19
2022-08-02T17:54:01.819Z,1014.2
2022-08-02T17:56:02.199Z,1014.2
2022-08-02T17:58:02.361Z,1014.28
2022-08-02T18:00:06.534Z,1014.28
2022-08-02T18:02:04.028Z,1014.28
2022-08-02T18:04:01.678Z,1014.28
2022-08-02T18:06:02.500Z,1014.21
2022-08-02T18:08:03.490Z,1014.21
2022-08-02T18:10:02.338Z,1014.09
2022-08-02T18:12:01.913Z,1014.09
2022-08-02T18:14:01.680Z,1014.09
2022-08-02T18:16:01.930Z,1014.09
2022-08-02T18:18:01.997Z,1014.11
2022-08-02T18:20:11.380Z,1014.11
2022-08-02T18:22:02.453Z,1013.87
2022-08-02T18:24:01.888Z,1013.87
2022-08-02T18:26:02.447Z,1014.02
2022-08-02T18:28:03.584Z,1014.02
2022-08-02T18:30:05.305Z,1013.94
2022-08-02T18:32:01.983Z,1013.94
2022-08-02T18:34:02.828Z,1013.97
2022-08-02T18:36:01.817Z,1013.97
2022-08-02T18:38:04.247Z,1013.85
2022-08-02T18:40:02.169Z,1013.85
2022-08-02T18:42:11.036Z,1013.9
2022-08-02T18:44:01.595Z,1013.9
2022-08-02T18:46:15.913Z,1013.84
2022-08-02T18:48:07.592Z,1013.84
2022-08-02T18:50:02.844Z,1013.9
2022-08-02T18:52:01.641Z,1013.9
2022-08-02T18:54:01.958Z,1013.86
2022-08-02T18:56:04.402Z,1013.86
2022-08-02T19:00:06.096Z,1013.89
2022-08-02T19:02:02.108Z,1013.78
2022-08-02T19:04:02.784Z,1013.78
2022-08-02T19:06:02.501Z,1013.82
2022-08-02T19:08:03.331Z,1013.82
2022-08-02T19:10:01.829Z,1013.83
2022-08-02T19:12:03.404Z,1013.83
2022-08-02T19:14:02.436Z,1013.67
2022-08-02T19:16:02.134Z,1013.67
2022-08-02T19:18:01.695Z,1013.75
2022-08-02T19:20:02.120Z,1013.75
2022-08-02T19:22:20.425Z,1013.77
2022-08-02T19:24:04.863Z,1013.77
2022-08-02T19:26:04.134Z,1013.74
2022-08-02T19:28:01.749Z,1013.74
2022-08-02T19:30:02.744Z,1013.76
2022-08-02T19:32:58.591Z,1013.76
2022-08-02T19:34:08.542Z,1013.76
2022-08-02T19:36:04.752Z,1013.76
2022-08-02T19:38:03.091Z,1013.71
2022-08-02T19:40:02.466Z,1013.71
2022-08-02T19:42:02.237Z,1013.71
2022-08-02T19:44:29.626Z,1013.71
2022-08-02T19:46:02.090Z,1013.76
2022-08-02T19:48:04.811Z,1013.76
2022-08-02T19:50:02.174Z,1013.7
2022-08-02T19:52:25.265Z,1013.7
2022-08-02T19:54:03.045Z,1013.69
2022-08-02T19:56:03.407Z,1013.69
2022-08-02T19:58:02.433Z,1013.78
2022-08-02T20:00:04.721Z,1013.78
2022-08-02T20:02:01.939Z,1013.85
2022-08-02T20:04:02.472Z,1013.85
2022-08-02T20:06:01.707Z,1013.78
2022-08-02T20:08:01.889Z,1013.78
2022-08-02T20:10:02.393Z,1013.75
2022-08-02T20:12:02.284Z,1013.75
2022-08-02T20:14:02.019Z,1013.81
2022-08-02T20:16:02.109Z,1013.81
2022-08-02T20:18:01.913Z,1013.66
2022-08-02T20:20:01.763Z,1013.66
2022-08-02T20:22:02.403Z,1013.7
2022-08-02T20:24:01.723Z,1013.7
2022-08-02T20:26:02.650Z,1013.72
2022-08-02T20:28:02.877Z,1013.72
2022-08-02T20:30:02.082Z,1013.8
2022-08-02T20:32:01.995Z,1013.8
2022-08-02T20:34:01.925Z,1013.82
2022-08-02T20:36:01.788Z,1013.82
2022-08-02T20:38:05.133Z,1013.83
2022-08-02T20:40:02.248Z,1013.83
2022-08-02T20:42:24.540Z,1013.83
2022-08-02T20:44:02.077Z,1013.83
2022-08-02T20:46:01.567Z,1013.9
2022-08-02T20:48:01.822Z,1013.9
2022-08-02T20:50:02.915Z,1013.85
2022-08-02T20:52:02.247Z,1013.88
2022-08-02T20:54:02.796Z,1013.88
2022-08-02T20:56:01.566Z,1013.71
2022-08-02T20:58:03.143Z,1013.71
2022-08-02T21:00:05.960Z,1013.82
2022-08-02T21:02:02.638Z,1013.82
2022-08-02T21:04:04.750Z,1013.83
2022-08-02T21:06:02.037Z,1013.83
2022-08-02T21:08:02.802Z,1013.81
2022-08-02T21:10:02.031Z,1013.81
2022-08-02T21:12:02.036Z,1013.69
2022-08-02T21:14:09.292Z,1013.69
2022-08-02T21:16:08.998Z,1013.81
2022-08-02T21:18:07.635Z,1013.81
2022-08-02T21:20:01.826Z,1013.62
2022-08-02T21:22:01.826Z,1013.62
2022-08-02T21:24:02.911Z,1013.69
2022-08-02T21:26:01.617Z,1013.69
2022-08-02T21:28:02.795Z,1013.59
2022-08-02T21:30:02.159Z,1013.59
2022-08-02T21:32:01.878Z,1013.7
2022-08-02T21:34:02.471Z,1013.7
2022-08-02T21:36:01.677Z,1013.51
2022-08-02T21:38:02.023Z,1013.51
2022-08-02T21:40:02.028Z,1013.65
2022-08-02T21:42:02.521Z,1013.65
2022-08-02T21:44:06.967Z,1013.6
2022-08-02T21:46:05.816Z,1013.6
2022-08-02T21:48:02.835Z,1013.71
2022-08-02T21:50:16.357Z,1013.71
2022-08-02T21:52:01.977Z,1013.66
2022-08-02T21:54:20.834Z,1013.66
2022-08-02T21:56:03.229Z,1013.67
2022-08-02T21:58:02.520Z,1013.67
2022-08-02T22:00:11.930Z,1013.66
2022-08-02T22:02:02.318Z,1013.66
2022-08-02T22:04:02.905Z,1013.61
2022-08-02T22:06:01.587Z,1013.61
2022-08-02T22:08:02.268Z,1013.54
2022-08-02T22:10:02.911Z,1013.54
2022-08-02T22:12:02.807Z,1013.48
2022-08-02T22:14:02.250Z,1013.48
2022-08-02T22:16:01.857Z,1013.61
2022-08-02T22:18:03.703Z,1013.61
2022-08-02T22:20:02.349Z,1013.57
2022-08-02T22:22:01.793Z,1013.57
2022-08-02T22:24:01.919Z,1013.64
2022-08-02T22:26:01.788Z,1013.64
2022-08-02T22:28:50.449Z,1013.57
2022-08-02T22:30:03.515Z,1013.57
2022-08-02T22:32:02.119Z,1013.5
2022-08-02T22:34:04.097Z,1013.5
2022-08-02T22:36:02.343Z,1013.55
2022-08-02T22:38:18.725Z,1013.55
2022-08-02T22:40:09.981Z,1013.52
2022-08-02T22:42:07.357Z,1013.52
2022-08-02T22:44:02.266Z,1013.5
2022-08-02T22:46:02.013Z,1013.5
2022-08-02T22:48:01.752Z,1013.58
2022-08-02T22:50:02.633Z,1013.58
2022-08-02T22:52:02.499Z,1013.62
2022-08-02T22:54:02.124Z,1013.62
2022-08-02T22:56:01.893Z,1013.58
2022-08-02T22:58:03.551Z,1013.58
2022-08-02T22:58:38.930Z,1014.11
2022-08-02T22:58:59.319Z,1013.89
2022-08-02T23:00:05.462Z,1013.58
2022-08-02T23:02:02.436Z,1013.58
2022-08-02T23:04:02.586Z,1013.58
2022-08-02T23:06:01.873Z,1013.58
2022-08-02T23:08:02.466Z,1013.52
2022-08-02T23:10:02.461Z,1013.52
2022-08-02T23:12:02.269Z,1013.47
2022-08-02T23:14:01.755Z,1013.47
2022-08-02T23:16:02.026Z,1013.39
2022-08-02T23:18:01.884Z,1013.39
2022-08-02T23:20:03.452Z,1013.43
2022-08-02T23:22:03.674Z,1013.43
2022-08-02T23:24:02.270Z,1013.46
2022-08-02T23:26:02.093Z,1013.46
2022-08-02T23:28:01.875Z,1013.39
2022-08-02T23:30:02.418Z,1013.39
2022-08-02T23:32:01.948Z,1013.45
2022-08-02T23:34:05.086Z,1013.45
2022-08-02T23:36:02.510Z,1013.47
2022-08-02T23:38:02.139Z,1013.47
2022-08-02T23:40:02.191Z,1013.45
2022-08-02T23:42:02.408Z,1013.45
2022-08-02T23:44:15.219Z,1013.43
2022-08-02T23:46:02.175Z,1013.43
2022-08-02T23:48:02.157Z,1013.56
2022-08-02T23:50:01.782Z,1013.56
2022-08-02T23:52:02.469Z,1013.52
2022-08-02T23:54:02.406Z,1013.52
2022-08-02T23:56:02.243Z,1013.55
2022-08-02T23:58:01.868Z,1013.55
